Time;durP1;ratioP1;P1;durP2;ratioP2;P2;SDS_P1;SDS_P2;PMS_P1;PMS_P2;Temp;Humidity;BMP_temperature;BMP_pressure;BME280_temperature;BME280_humidity;BME280_pressure;Samples;Min_cycle;Max_cycle;Signal;HPM_P1;HPM_P2
2023/04/05 00:00:42;;;;;;;1.15;0.68;;;17.90;48.70;;;;;;6255514;23;19999;-72
2023/04/05 00:03:11;;;;;;;1.33;0.88;;;17.90;48.70;;;;;;6255344;23;19996;-72
2023/04/05 00:05:38;;;;;;;1.08;0.82;;;17.90;48.70;;;;;;6255374;23;20024;-72
2023/04/05 00:08:07;;;;;;;1.75;0.75;;;17.90;48.70;;;;;;6255410;23;20460;-72
2023/04/05 00:10:33;;;;;;;1.00;0.80;;;17.80;48.60;;;;;;6255318;23;20008;-72
2023/04/05 00:12:59;;;;;;;1.55;0.82;;;17.80;48.60;;;;;;6255387;23;19992;-72
2023/04/05 00:15:28;;;;;;;0.80;0.70;;;17.80;48.70;;;;;;6255196;23;20004;-72
2023/04/05 00:17:55;;;;;;;1.27;0.80;;;17.80;48.70;;;;;;6245087;23;20439;-72
2023/04/05 00:20:21;;;;;;;1.77;1.05;;;17.90;48.70;;;;;;6245337;23;19996;-72
2023/04/05 00:22:49;;;;;;;1.27;0.90;;;17.80;48.60;;;;;;6245333;23;20301;-72
2023/04/05 00:25:16;;;;;;;1.08;0.70;;;17.80;48.70;;;;;;6245351;23;20000;-72
2023/04/05 00:27:42;;;;;;;2.30;0.88;;;17.80;48.70;;;;;;6245393;23;19992;-72
2023/04/05 00:30:08;;;;;;;1.95;0.85;;;17.70;61.30;;;;;;6255319;23;20000;-72
2023/04/05 00:32:35;;;;;;;1.33;0.80;;;17.70;48.70;;;;;;6244874;23;20035;-72
2023/04/05 00:35:00;;;;;;;1.05;0.52;;;17.80;48.70;;;;;;6255180;23;19992;-72
2023/04/05 00:37:26;;;;;;;1.00;0.90;;;17.80;48.70;;;;;;6245271;23;20074;-72
2023/04/05 00:39:52;;;;;;;1.02;0.88;;;17.70;48.70;;;;;;6245068;23;19992;-72
2023/04/05 00:42:18;;;;;;;0.50;0.50;;;17.70;48.70;;;;;;6254821;23;20370;-72
2023/04/05 00:44:44;;;;;;;3.08;0.80;;;17.80;48.70;;;;;;6245199;23;20367;-72
2023/04/05 00:47:10;;;;;;;0.60;0.60;;;17.70;48.70;;;;;;6255159;23;19996;-72
2023/04/05 00:49:37;;;;;;;0.65;0.60;;;17.70;48.60;;;;;;6245046;23;20308;-72
2023/04/05 00:52:03;;;;;;;1.02;0.70;;;17.70;48.70;;;;;;6245246;23;20011;-72
2023/04/05 00:54:29;;;;;;;1.00;0.70;;;17.70;48.70;;;;;;6255001;23;20000;-72
2023/04/05 00:56:59;;;;;;;1.23;0.90;;;17.70;48.70;;;;;;6244801;23;19996;-72
2023/04/05 00:59:27;;;;;;;1.23;0.60;;;17.70;48.80;;;;;;6254908;23;19993;-72
2023/04/05 01:02:16;;;;;;;1.00;0.88;;;17.60;48.70;;;;;;6254869;23;20007;-72
2023/04/05 01:04:48;;;;;;;0.90;0.60;;;17.60;48.70;;;;;;6254943;23;20023;-72
2023/04/05 01:07:23;;;;;;;0.80;0.80;;;17.60;48.70;;;;;;6244783;23;20024;-72
2023/04/05 01:09:59;;;;;;;1.00;0.70;;;17.60;48.70;;;;;;6254875;23;20071;-72
2023/04/05 01:12:31;;;;;;;1.15;0.88;;;17.60;48.70;;;;;;6245116;23;20364;-72
2023/04/05 01:14:56;;;;;;;2.58;0.70;;;17.60;48.70;;;;;;6245025;23;19992;-72
2023/04/05 01:17:27;;;;;;;2.05;0.65;;;17.60;48.80;;;;;;6254857;23;20022;-72
2023/04/05 01:19:58;;;;;;;1.45;0.77;;;17.60;48.70;;;;;;6244944;23;19997;-72
2023/04/05 01:22:36;;;;;;;1.02;0.55;;;17.60;48.70;;;;;;6254854;23;20007;-72
2023/04/05 01:25:18;;;;;;;1.85;0.65;;;17.60;48.70;;;;;;6245012;23;20010;-72
2023/04/05 01:28:18;;;;;;;0.90;0.60;;;17.60;48.80;;;;;;6254773;23;20043;-72
2023/04/05 01:30:53;;;;;;;2.83;0.68;;;17.50;48.70;;;;;;6244750;23;20022;-72
2023/04/05 01:33:52;;;;;;;1.00;0.90;;;17.50;48.70;;;;;;6254381;23;20038;-72
2023/04/05 01:36:47;;;;;;;1.23;0.52;;;17.60;48.80;;;;;;6254689;23;20058;-72
2023/04/05 01:39:16;;;;;;;2.13;0.55;;;17.50;48.70;;;;;;6254698;23;20076;-72
2023/04/05 01:41:41;;;;;;;0.73;0.68;;;17.50;48.70;;;;;;6254824;23;19993;-72
2023/04/05 01:44:07;;;;;;;0.60;0.52;;;17.60;48.80;;;;;;6254505;23;20066;-72
2023/04/05 01:46:33;;;;;;;0.82;0.52;;;17.50;48.80;;;;;;6254782;23;20011;-72
2023/04/05 01:48:58;;;;;;;0.93;0.93;;;17.50;48.70;;;;;;6254723;23;19996;-72
2023/04/05 01:51:24;;;;;;;1.33;0.82;;;17.50;48.80;;;;;;6254743;23;20009;-72
2023/04/05 01:53:50;;;;;;;0.82;0.70;;;17.50;48.80;;;;;;6256632;23;20412;-72
2023/04/05 01:56:15;;;;;;;1.30;0.70;;;17.40;48.70;;;;;;6256719;23;20003;-72
2023/04/05 01:58:41;;;;;;;1.10;1.00;;;17.40;48.70;;;;;;6246820;23;20019;-72
2023/04/05 02:01:07;;;;;;;0.77;0.65;;;17.40;48.70;;;;;;6246743;23;19996;-72
2023/04/05 02:03:33;;;;;;;0.73;0.73;;;17.40;48.70;;;;;;6246824;23;20003;-72
2023/04/05 02:06:00;;;;;;;1.55;0.68;;;17.40;48.70;;;;;;6246763;23;20000;-72
2023/04/05 02:08:26;;;;;;;0.73;0.70;;;17.40;48.70;;;;;;6246657;23;20060;-72
2023/04/05 02:10:52;;;;;;;0.90;0.70;;;17.40;48.70;;;;;;6246416;23;20431;-72
2023/04/05 02:13:20;;;;;;;0.93;0.75;;;17.40;49.40;;;;;;6246607;23;19996;-72
2023/04/05 02:15:48;;;;;;;1.33;0.73;;;17.30;48.70;;;;;;6246253;23;20420;-72
2023/04/05 02:18:14;;;;;;;1.20;0.70;;;17.40;48.80;;;;;;6246228;23;20071;-72
2023/04/05 02:20:41;;;;;;;0.82;0.75;;;17.40;62.80;;;;;;6246804;23;19996;-72
2023/04/05 02:23:07;;;;;;;0.60;0.52;;;17.30;48.70;;;;;;6246541;23;20000;-72
2023/04/05 02:25:33;;;;;;;0.93;0.73;;;17.30;48.70;;;;;;6246533;23;20313;-72
2023/04/05 02:27:59;;;;;;;1.05;0.80;;;17.30;48.80;;;;;;6246473;23;19996;-72
2023/04/05 02:30:27;;;;;;;1.23;0.90;;;17.30;48.80;;;;;;6245994;23;20005;-72
2023/04/05 02:32:54;;;;;;;0.73;0.60;;;17.30;48.80;;;;;;6246406;23;20011;-72
2023/04/05 02:35:20;;;;;;;1.20;0.68;;;17.30;48.70;;;;;;6256328;23;20058;-72
2023/04/05 02:37:46;;;;;;;1.23;0.90;;;17.20;48.70;;;;;;6256439;23;19996;-72
2023/04/05 02:40:13;;;;;;;2.30;0.90;;;17.30;48.80;;;;;;6256273;23;20427;-72
2023/04/05 02:42:39;;;;;;;1.10;0.60;;;17.30;48.80;;;;;;6256023;23;20038;-72
2023/04/05 02:45:07;;;;;;;0.68;0.60;;;17.30;48.80;;;;;;6256251;23;20050;-72
2023/04/05 02:47:33;;;;;;;1.10;0.60;;;17.20;48.70;;;;;;6246375;23;20071;-72
2023/04/05 02:49:58;;;;;;;1.23;0.65;;;17.20;49.40;;;;;;6256010;23;20036;-72
2023/04/05 02:52:24;;;;;;;0.65;0.57;;;17.20;48.70;;;;;;6256127;23;20004;-72
2023/04/05 02:54:50;;;;;;;0.85;0.57;;;17.20;48.70;;;;;;6256333;23;19996;-72
2023/04/05 02:57:15;;;;;;;0.77;0.65;;;17.20;48.80;;;;;;6219196;23;20073;-72
2023/04/05 02:59:41;;;;;;;0.63;0.63;;;17.20;48.70;;;;;;6256150;23;20450;-73
2023/04/05 03:02:09;;;;;;;0.70;0.55;;;17.20;48.80;;;;;;6255841;23;20023;-73
2023/04/05 03:04:35;;;;;;;0.90;0.75;;;17.20;61.60;;;;;;6255894;23;19992;-73
2023/04/05 03:07:04;;;;;;;0.98;0.75;;;17.10;48.80;;;;;;6255931;23;20071;-72
2023/04/05 03:09:33;;;;;;;1.35;0.80;;;17.10;48.80;;;;;;6255995;23;19992;-73
2023/04/05 03:12:02;;;;;;;0.60;0.60;;;17.10;48.80;;;;;;6246133;23;20047;-73
2023/04/05 03:14:29;;;;;;;1.05;0.82;;;17.10;48.80;;;;;;6256104;23;20064;-73
2023/04/05 03:16:55;;;;;;;0.95;0.70;;;17.10;48.80;;;;;;6256048;23;20000;-73
2023/04/05 03:19:21;;;;;;;1.05;0.73;;;17.00;48.70;;;;;;6256004;23;20019;-73
2023/04/05 03:21:47;;;;;;;0.88;0.70;;;17.10;48.80;;;;;;6245725;23;20002;-73
2023/04/05 03:24:14;;;;;;;0.80;0.60;;;17.10;48.80;;;;;;6255804;23;20004;-73
2023/04/05 03:26:42;;;;;;;1.75;0.85;;;17.00;48.70;;;;;;6245985;23;20094;-73
2023/04/05 03:29:08;;;;;;;1.83;0.80;;;17.00;48.80;;;;;;6245944;23;19999;-72
2023/04/05 03:31:34;;;;;;;1.00;0.70;;;17.00;48.70;;;;;;6245797;23;20031;-73
2023/04/05 03:34:00;;;;;;;0.77;0.77;;;;;;;;;;6245630;23;19993;-73
2023/04/05 03:36:29;;;;;;;1.92;1.05;;;17.00;48.20;;;;;;6245792;23;20011;-73
2023/04/05 03:38:56;;;;;;;1.33;0.80;;;17.00;48.80;;;;;;6245710;23;19996;-72
2023/04/05 03:41:22;;;;;;;0.80;0.77;;;17.00;48.80;;;;;;6255694;23;20083;-72
2023/04/05 03:43:48;;;;;;;1.23;0.90;;;17.00;48.80;;;;;;6255498;23;20004;-73
2023/04/05 03:46:13;;;;;;;1.15;0.80;;;16.90;48.80;;;;;;6255593;23;20075;-73
2023/04/05 03:48:39;;;;;;;0.70;0.60;;;16.90;48.80;;;;;;6255646;23;20019;-73
2023/04/05 03:51:05;;;;;;;1.00;0.80;;;16.90;48.90;;;;;;6255600;23;20011;-73
2023/04/05 03:53:31;;;;;;;0.90;0.80;;;16.90;48.90;;;;;;6255635;23;19996;-73
2023/04/05 03:55:57;;;;;;;0.70;0.70;;;16.90;48.90;;;;;;6255576;23;19996;-73
2023/04/05 03:58:24;;;;;;;1.13;0.88;;;16.90;48.90;;;;;;6245602;23;20354;-72
2023/04/05 04:00:51;;;;;;;1.13;0.95;;;16.90;48.90;;;;;;6255557;23;19992;-73
2023/04/05 04:03:17;;;;;;;0.70;0.60;;;16.90;48.90;;;;;;6255464;23;20071;-72
2023/04/05 04:05:43;;;;;;;1.10;0.80;;;16.90;48.90;;;;;;6255466;23;20023;-73
2023/04/05 04:08:08;;;;;;;1.75;0.75;;;16.90;48.90;;;;;;6255552;23;19996;-73
2023/04/05 04:10:35;;;;;;;0.73;0.70;;;16.90;48.90;;;;;;6245573;23;20008;-73
2023/04/05 04:13:00;;;;;;;1.20;0.45;;;16.90;48.90;;;;;;6245108;23;19992;-73
2023/04/05 04:15:26;;;;;;;0.80;0.65;;;16.80;48.90;;;;;;6254784;23;20003;-73
2023/04/05 04:17:52;;;;;;;1.00;0.80;;;16.80;48.90;;;;;;6255232;23;20002;-73
2023/04/05 04:20:17;;;;;;;2.58;0.88;;;16.80;48.90;;;;;;6245403;23;20491;-72
2023/04/05 04:22:44;;;;;;;0.70;0.70;;;16.80;48.90;;;;;;6255351;23;20054;-73
2023/04/05 04:25:11;;;;;;;0.60;0.60;;;16.80;48.80;;;;;;6245314;23;20031;-72
2023/04/05 04:27:40;;;;;;;1.00;0.68;;;16.80;48.90;;;;;;6244983;23;20482;-72
2023/04/05 04:30:12;;;;;;;1.33;0.73;;;16.80;48.90;;;;;;6244894;23;20007;-72
2023/04/05 04:32:54;;;;;;;0.93;0.90;;;16.70;48.90;;;;;;6245254;23;20059;-72
2023/04/05 04:35:23;;;;;;;2.60;0.77;;;16.80;48.90;;;;;;6255374;23;19992;-73
2023/04/05 04:37:57;;;;;;;1.33;0.77;;;16.70;48.90;;;;;;6255225;23;19999;-73
2023/04/05 04:40:28;;;;;;;0.65;0.65;;;16.70;48.90;;;;;;6245258;23;19996;-73
2023/04/05 04:42:57;;;;;;;1.10;1.00;;;16.70;49.00;;;;;;6244860;23;20414;-73
2023/04/05 04:45:23;;;;;;;1.77;1.00;;;16.70;48.90;;;;;;6255185;23;20080;-72
2023/04/05 04:47:52;;;;;;;1.50;0.70;;;16.80;49.00;;;;;;6255438;23;20004;-73
2023/04/05 04:50:19;;;;;;;1.75;0.90;;;16.70;48.90;;;;;;6254889;23;20087;-73
2023/04/05 04:52:45;;;;;;;0.75;0.70;;;16.70;48.90;;;;;;6254934;23;20027;-73
2023/04/05 04:55:14;;;;;;;1.15;0.88;;;16.70;48.90;;;;;;6254889;23;20493;-73
2023/04/05 04:57:41;;;;;;;0.75;0.75;;;16.70;48.90;;;;;;6254873;23;20019;-73
2023/04/05 05:00:14;;;;;;;1.60;0.80;;;16.70;48.90;;;;;;6245019;23;20376;-72
2023/04/05 05:02:41;;;;;;;1.23;0.70;;;16.70;48.90;;;;;;6254800;23;19996;-73
2023/04/05 05:05:07;;;;;;;0.70;0.70;;;16.60;48.90;;;;;;6245068;23;20019;-72
2023/04/05 05:07:34;;;;;;;1.05;0.77;;;16.60;48.90;;;;;;6254817;23;20000;-72
2023/04/05 05:09:59;;;;;;;0.95;0.80;;;16.60;48.90;;;;;;6254809;23;19996;-72
2023/04/05 05:12:25;;;;;;;0.70;0.70;;;16.60;48.90;;;;;;6254798;23;20462;-73
2023/04/05 05:14:51;;;;;;;1.02;1.00;;;16.60;49.00;;;;;;6249117;23;20002;-74
2023/04/05 05:17:17;;;;;;;1.20;0.80;;;16.60;49.00;;;;;;6230827;23;19996;-72
2023/04/05 05:19:44;;;;;;;0.75;0.70;;;16.60;49.00;;;;;;6254755;23;20033;-73
2023/04/05 05:22:10;;;;;;;1.30;0.88;;;16.50;61.90;;;;;;6254845;23;19997;-73
2023/04/05 05:24:36;;;;;;;1.35;0.85;;;16.60;49.10;;;;;;6254615;23;20461;-72
2023/04/05 05:27:01;;;;;;;1.77;0.73;;;16.60;49.10;;;;;;6244795;22;20001;-73
2023/04/05 05:29:27;;;;;;;0.80;0.80;;;16.50;49.00;;;;;;6244429;23;20062;-74
2023/04/05 05:31:54;;;;;;;1.08;0.88;;;16.50;49.00;;;;;;6244813;23;20059;-73
2023/04/05 05:34:20;;;;;;;2.83;1.10;;;16.50;49.70;;;;;;6244810;23;20390;-73
2023/04/05 05:36:46;;;;;;;3.80;0.80;;;16.50;49.10;;;;;;6244673;23;20004;-73
2023/04/05 05:39:12;;;;;;;1.35;1.25;;;16.50;49.70;;;;;;6244717;23;20071;-73
2023/04/05 05:41:38;;;;;;;2.75;1.00;;;16.50;49.10;;;;;;6244707;23;20095;-73
2023/04/05 05:44:05;;;;;;;2.80;0.80;;;16.50;49.00;;;;;;6244373;23;20479;-73
2023/04/05 05:46:31;;;;;;;2.30;0.90;;;15.20;61.50;;;;;;6244361;23;20000;-73
2023/04/05 05:48:58;;;;;;;1.35;0.88;;;;;;;;;;6244266;23;19999;-73
2023/04/05 05:51:24;;;;;;;2.25;1.17;;;16.50;48.50;;;;;;6244433;23;20016;-73
2023/04/05 05:53:50;;;;;;;2.53;0.95;;;16.50;49.10;;;;;;6244518;23;19992;-73
2023/04/05 05:56:16;;;;;;;2.08;1.25;;;16.50;49.10;;;;;;6244706;23;20016;-72
2023/04/05 05:58:42;;;;;;;1.05;0.98;;;16.50;49.10;;;;;;6244655;23;20003;-73
2023/04/05 06:01:10;;;;;;;2.05;1.10;;;16.50;49.20;;;;;;6251256;23;20003;-74
2023/04/05 06:03:37;;;;;;;3.58;1.17;;;16.50;49.20;;;;;;6245443;23;20022;-73
2023/04/05 06:06:09;;;;;;;1.33;0.93;;;16.40;49.10;;;;;;6244319;23;19999;-73
2023/04/05 06:08:36;;;;;;;1.95;1.00;;;16.60;63.30;;;;;;6244739;23;20000;-73
2023/04/05 06:11:02;;;;;;;2.17;0.80;;;16.40;49.30;;;;;;6244143;23;20011;-73
2023/04/05 06:13:29;;;;;;;1.40;1.20;;;16.40;49.40;;;;;;6244263;23;20000;-73
2023/04/05 06:15:55;;;;;;;1.25;1.00;;;16.40;49.50;;;;;;6244640;23;20011;-73
2023/04/05 06:18:21;;;;;;;1.13;0.80;;;16.40;49.70;;;;;;6244722;23;20002;-73
2023/04/05 06:20:47;;;;;;;0.95;0.75;;;16.30;49.70;;;;;;6254496;23;20020;-73
2023/04/05 06:23:13;;;;;;;2.20;1.20;;;16.30;49.70;;;;;;6254500;23;20007;-73
2023/04/05 06:25:39;;;;;;;1.40;0.98;;;16.40;49.80;;;;;;6244596;23;20366;-73
2023/04/05 06:28:06;;;;;;;2.97;1.15;;;16.30;49.70;;;;;;6254437;23;20054;-72
2023/04/05 06:30:33;;;;;;;1.45;0.98;;;16.30;49.70;;;;;;6254387;23;20042;-73
2023/04/05 06:32:59;;;;;;;1.02;0.85;;;16.30;49.90;;;;;;6254518;23;19993;-72
2023/04/05 06:35:25;;;;;;;1.33;0.95;;;16.30;49.90;;;;;;6254515;23;19996;-72
2023/04/05 06:37:51;;;;;;;1.75;1.10;;;16.30;50.00;;;;;;6255017;23;19999;-72
2023/04/05 06:40:17;;;;;;;2.95;1.13;;;16.30;49.90;;;;;;6246505;23;20327;-72
2023/04/05 06:42:43;;;;;;;3.70;1.20;;;16.30;50.10;;;;;;6256113;23;20012;-72
2023/04/05 06:45:10;;;;;;;5.32;1.27;;;16.30;50.10;;;;;;6256222;23;19997;-72
2023/04/05 06:47:37;;;;;;;3.85;1.10;;;16.20;49.80;;;;;;6256232;23;20058;-72
2023/04/05 06:50:05;;;;;;;6.28;1.70;;;16.20;50.30;;;;;;6256028;23;20000;-72
2023/04/05 06:52:31;;;;;;;5.55;1.83;;;16.20;50.40;;;;;;6219131;23;19997;-73
2023/04/05 06:54:58;;;;;;;3.60;1.02;;;16.10;50.30;;;;;;6245943;23;19996;-74
2023/04/05 06:57:24;;;;;;;3.67;1.10;;;16.20;50.40;;;;;;6246247;23;20382;-73
2023/04/05 06:59:51;;;;;;;1.77;1.05;;;16.20;50.30;;;;;;6246230;23;20000;-74
2023/04/05 07:02:18;;;;;;;2.25;1.00;;;16.20;50.20;;;;;;6245688;23;20075;-74
2023/04/05 07:04:45;;;;;;;4.07;1.40;;;16.20;50.20;;;;;;6246117;23;20007;-74
2023/04/05 07:07:11;;;;;;;1.85;1.20;;;16.20;50.20;;;;;;6245745;23;19993;-73
2023/04/05 07:09:38;;;;;;;2.15;1.13;;;16.20;50.10;;;;;;6246161;23;20067;-74
2023/04/05 07:12:05;;;;;;;2.78;1.30;;;16.20;50.20;;;;;;6245592;23;20038;-72
2023/04/05 07:14:33;;;;;;;3.72;1.10;;;16.20;50.20;;;;;;6246277;23;20045;-72
2023/04/05 07:16:59;;;;;;;1.15;0.90;;;16.20;50.30;;;;;;6245619;23;20427;-72
2023/04/05 07:19:26;;;;;;;2.13;0.70;;;16.20;50.90;;;;;;6246013;23;20000;-72
2023/04/05 07:21:52;;;;;;;1.70;1.08;;;16.20;50.40;;;;;;6245893;23;20064;-72
2023/04/05 07:24:18;;;;;;;1.05;0.93;;;16.20;50.40;;;;;;6245916;23;20000;-72
2023/04/05 07:26:44;;;;;;;1.88;1.20;;;16.20;50.50;;;;;;6255865;23;20020;-71
2023/04/05 07:29:11;;;;;;;2.70;1.42;;;16.20;50.40;;;;;;6255714;23;19996;-71
2023/04/05 07:31:39;;;;;;;3.25;0.95;;;16.20;50.20;;;;;;6245866;23;20035;-72
2023/04/05 07:34:05;;;;;;;1.23;0.95;;;16.20;50.70;;;;;;6245915;23;20007;-72
2023/04/05 07:36:32;;;;;;;1.67;0.80;;;16.20;50.80;;;;;;6245830;23;20067;-71
2023/04/05 07:38:58;;;;;;;1.27;0.90;;;16.10;51.00;;;;;;6245899;23;19997;-72
2023/04/05 07:41:25;;;;;;;1.30;1.10;;;16.10;51.10;;;;;;6245698;23;20004;-72
2023/04/05 07:43:51;;;;;;;2.17;0.73;;;16.10;51.30;;;;;;6245266;23;20087;-74
2023/04/05 07:46:18;;;;;;;0.93;0.77;;;16.10;51.40;;;;;;6245579;23;20322;-71
2023/04/05 07:48:47;;;;;;;1.98;1.10;;;16.10;51.10;;;;;;6245396;23;20028;-72
2023/04/05 07:51:13;;;;;;;1.77;1.00;;;16.10;51.70;;;;;;6245241;23;20032;-72
2023/04/05 07:53:40;;;;;;;1.17;0.90;;;16.20;51.70;;;;;;6245279;23;19996;-72
2023/04/05 07:56:06;;;;;;;3.22;1.08;;;16.20;51.70;;;;;;6245661;23;20007;-72
2023/04/05 07:58:33;;;;;;;3.22;1.27;;;16.10;51.80;;;;;;6245458;23;19993;-72
2023/04/05 08:01:00;;;;;;;1.73;0.95;;;16.20;51.30;;;;;;6245197;23;20030;-72
2023/04/05 08:03:27;;;;;;;3.22;1.00;;;16.20;51.90;;;;;;6245173;23;19992;-72
2023/04/05 08:05:54;;;;;;;1.67;1.25;;;16.20;52.00;;;;;;6245244;23;20000;-72
2023/04/05 08:08:21;;;;;;;4.00;1.30;;;16.30;52.10;;;;;;6245597;23;20003;-71
2023/04/05 08:10:47;;;;;;;2.10;0.90;;;16.30;52.10;;;;;;6245439;23;20031;-72
2023/04/05 08:13:13;;;;;;;2.65;0.90;;;16.20;52.20;;;;;;6245246;23;19997;-72
2023/04/05 08:15:40;;;;;;;2.80;1.15;;;16.30;52.20;;;;;;6218454;23;20450;-76
2023/04/05 08:18:06;;;;;;;1.77;0.90;;;16.30;52.20;;;;;;6223307;23;20019;-71
2023/04/05 08:20:37;;;;;;;2.42;0.80;;;16.30;52.40;;;;;;6246606;23;20042;-72
2023/04/05 08:23:06;;;;;;;3.13;1.08;;;16.30;52.50;;;;;;6255375;23;19996;-71
2023/04/05 08:25:32;;;;;;;2.05;0.80;;;16.40;52.50;;;;;;6255241;23;20000;-72
2023/04/05 08:27:58;;;;;;;1.60;1.10;;;16.40;52.60;;;;;;6255374;23;20019;-72
2023/04/05 08:30:23;;;;;;;2.15;0.85;;;16.40;52.60;;;;;;6255161;23;20065;-71
2023/04/05 08:32:49;;;;;;;1.08;0.88;;;16.40;52.60;;;;;;6255270;23;19996;-72
2023/04/05 08:35:15;;;;;;;2.67;0.95;;;16.40;52.60;;;;;;6255200;23;20053;-71
2023/04/05 08:37:40;;;;;;;1.48;1.00;;;16.50;52.90;;;;;;6255121;23;19993;-71
2023/04/05 08:40:07;;;;;;;1.88;0.82;;;16.50;52.90;;;;;;6255167;23;20034;-72
2023/04/05 08:42:36;;;;;;;3.22;1.30;;;16.50;52.90;;;;;;6254841;23;20380;-71
2023/04/05 08:45:03;;;;;;;2.25;1.00;;;16.60;53.00;;;;;;6255231;23;19997;-71
2023/04/05 08:47:29;;;;;;;1.95;1.23;;;16.60;53.00;;;;;;6255129;23;20000;-71
2023/04/05 08:49:55;;;;;;;2.45;1.02;;;16.60;53.60;;;;;;6254957;23;20003;-71
2023/04/05 08:52:21;;;;;;;1.38;1.17;;;16.60;52.90;;;;;;6255074;23;20000;-72
2023/04/05 08:54:46;;;;;;;2.22;0.90;;;16.60;53.00;;;;;;6255033;23;19996;-72
2023/04/05 08:57:14;;;;;;;2.97;1.10;;;16.70;52.50;;;;;;6245161;23;19995;-72
2023/04/05 08:59:43;;;;;;;1.10;1.00;;;16.70;53.00;;;;;;6218404;23;19992;-71
2023/04/05 09:02:18;;;;;;;2.17;1.10;;;16.70;53.70;;;;;;6244411;23;19992;-71
2023/04/05 09:04:47;;;;;;;1.67;1.02;;;16.70;53.00;;;;;;6244930;23;19996;-72
2023/04/05 09:07:13;;;;;;;1.17;0.93;;;16.70;52.90;;;;;;6245140;23;19992;-72
2023/04/05 09:09:45;;;;;;;1.73;1.10;;;16.80;52.80;;;;;;6245031;23;20004;-72
2023/04/05 09:12:11;;;;;;;1.50;0.80;;;16.90;52.80;;;;;;6245004;23;20012;-73
2023/04/05 09:14:40;;;;;;;1.48;0.98;;;17.00;52.50;;;;;;6244575;23;19997;-72
2023/04/05 09:17:07;;;;;;;4.17;1.00;;;17.00;52.80;;;;;;6244971;23;20000;-72
2023/04/05 09:19:33;;;;;;;1.63;1.30;;;17.10;52.50;;;;;;6244821;23;19996;-73
2023/04/05 09:22:03;;;;;;;2.15;1.30;;;17.10;52.30;;;;;;6244589;23;20356;-72
2023/04/05 09:24:41;;;;;;;0.90;0.80;;;17.20;52.40;;;;;;6245068;23;19993;-71
2023/04/05 09:27:12;;;;;;;2.00;0.85;;;17.20;52.00;;;;;;6244538;23;19997;-71
2023/04/05 09:29:42;;;;;;;1.42;1.08;;;17.30;52.20;;;;;;6244547;23;19992;-73
2023/04/05 09:32:09;;;;;;;;;;;17.30;51.90;;;;;;6245350;23;20031;-72
2023/04/05 09:34:36;;;;;;;1.92;1.13;;;;;;;;;;6254689;23;20002;-72
2023/04/05 09:37:11;;;;;;;1.40;0.95;;;17.40;51.30;;;;;;6254799;23;20449;-72
2023/04/05 09:39:36;;;;;;;2.15;1.10;;;17.50;51.90;;;;;;6244886;23;20011;-72
2023/04/05 09:42:05;;;;;;;1.02;0.73;;;17.50;51.60;;;;;;6254556;23;20308;-72
2023/04/05 09:44:51;;;;;;;1.60;0.98;;;17.60;51.80;;;;;;6244767;23;20027;-71
2023/04/05 09:47:29;;;;;;;2.50;0.95;;;17.70;51.50;;;;;;6244371;23;20001;-71
2023/04/05 09:50:00;;;;;;;2.30;0.95;;;17.70;51.70;;;;;;6244568;23;19993;-71
2023/04/05 09:52:32;;;;;;;;;;;17.80;51.60;;;;;;6245240;23;20050;-71
2023/04/05 09:55:03;;;;;;;2.88;1.48;;;17.90;51.80;;;;;;6244371;23;19956;-71
2023/04/05 09:57:33;;;;;;;2.03;1.30;;;17.90;51.50;;;;;;6244860;23;20027;-71
2023/04/05 09:59:59;;;;;;;1.95;1.10;;;17.90;51.40;;;;;;6244821;23;20000;-71
2023/04/05 10:02:38;;;;;;;3.33;1.30;;;18.00;51.40;;;;;;6244666;23;20019;-71
2023/04/05 10:05:14;;;;;;;1.85;1.05;;;18.10;51.20;;;;;;6244717;23;20074;-72
2023/04/05 10:07:44;;;;;;;2.45;1.00;;;18.20;51.20;;;;;;6244901;23;20002;-73
2023/04/05 10:10:11;;;;;;;2.03;1.70;;;18.20;51.60;;;;;;6244701;23;19992;-72
2023/04/05 10:12:40;;;;;;;2.13;1.30;;;18.30;50.90;;;;;;6245043;23;20439;-72
2023/04/05 10:15:07;;;;;;;2.53;1.17;;;18.30;50.70;;;;;;6246705;23;20327;-72
2023/04/05 10:17:55;;;;;;;2.65;0.90;;;18.40;50.70;;;;;;6246429;23;20004;-72
2023/04/05 10:20:23;;;;;;;1.88;1.17;;;18.50;50.60;;;;;;6246705;23;20004;-72
2023/04/05 10:22:59;;;;;;;1.42;1.00;;;18.60;50.40;;;;;;6246575;23;20394;-72
2023/04/05 10:25:50;;;;;;;1.92;1.02;;;18.60;51.00;;;;;;6246236;23;20003;-72
2023/04/05 10:28:33;;;;;;;1.63;1.17;;;18.70;50.30;;;;;;6246552;23;20057;-71
2023/04/05 10:31:27;;;;;;;1.42;1.00;;;18.80;50.20;;;;;;6246058;23;20061;-72
2023/04/05 10:34:02;;;;;;;1.65;1.20;;;18.90;50.20;;;;;;6256408;23;20004;-72
2023/04/05 10:36:59;;;;;;;1.45;0.90;;;18.90;50.20;;;;;;6246763;23;20361;-71
2023/04/05 10:39:32;;;;;;;1.45;0.80;;;19.00;50.10;;;;;;6246527;23;20004;-72
2023/04/05 10:42:01;;;;;;;2.25;1.00;;;19.10;50.00;;;;;;6245788;23;19992;-71
2023/04/05 10:44:31;;;;;;;2.00;1.20;;;19.20;49.90;;;;;;6246506;23;19997;-73
2023/04/05 10:46:57;;;;;;;1.13;0.73;;;19.20;49.80;;;;;;6246694;23;19996;-72
2023/04/05 10:49:55;;;;;;;3.10;0.90;;;19.30;50.00;;;;;;6246350;23;20000;-71
2023/04/05 10:52:21;;;;;;;1.35;0.90;;;19.30;49.70;;;;;;6217395;23;20015;-71
2023/04/05 10:54:48;;;;;;;1.00;0.80;;;19.50;49.80;;;;;;6246412;23;20015;-71
2023/04/05 10:57:18;;;;;;;1.10;0.80;;;19.50;49.70;;;;;;6246264;23;20380;-71
2023/04/05 10:59:45;;;;;;;0.93;0.75;;;19.50;49.60;;;;;;6246298;23;20000;-71
2023/04/05 11:02:13;;;;;;;1.23;0.90;;;19.60;49.70;;;;;;6246303;23;20387;-71
2023/04/05 11:04:40;;;;;;;1.42;0.80;;;19.60;49.70;;;;;;6256219;23;20331;-71
2023/04/05 11:07:14;;;;;;;1.50;0.70;;;19.70;50.30;;;;;;6256050;23;20027;-71
2023/04/05 11:09:55;;;;;;;0.90;0.60;;;19.70;50.20;;;;;;6219266;23;20046;-71
2023/04/05 11:12:51;;;;;;;1.02;0.88;;;19.80;49.60;;;;;;6245812;23;20035;-71
2023/04/05 11:15:28;;;;;;;3.28;0.95;;;19.90;49.50;;;;;;6245682;23;20027;-71
2023/04/05 11:18:11;;;;;;;1.67;0.93;;;20.10;49.10;;;;;;6245609;23;20000;-71
2023/04/05 11:20:51;;;;;;;2.05;0.93;;;20.10;48.70;;;;;;6245819;23;20054;-71
2023/04/05 11:23:19;;;;;;;2.35;1.20;;;20.20;48.20;;;;;;6255894;23;20000;-71
2023/04/05 11:25:49;;;;;;;2.42;1.55;;;20.30;47.60;;;;;;6245494;23;19996;-72
2023/04/05 11:28:36;;;;;;;;;;;20.30;47.10;;;;;;6256449;23;20000;-73
2023/04/05 11:31:17;;;;;;;1.73;1.40;;;20.40;46.60;;;;;;6245817;23;20248;-72
2023/04/05 11:33:58;;;;;;;;;;;20.40;46.90;;;;;;6246105;23;20075;-73
2023/04/05 11:36:46;;;;;;;1.92;1.30;;;20.60;46.70;;;;;;6245541;23;19912;-72
2023/04/05 11:39:18;;;;;;;2.28;1.50;;;20.50;46.50;;;;;;6245509;23;19996;-73
2023/04/05 11:41:54;;;;;;;1.52;1.17;;;20.50;46.20;;;;;;6255751;23;20004;-72
2023/04/05 11:44:22;;;;;;;1.20;0.90;;;20.60;46.70;;;;;;6245399;23;20008;-71
2023/04/05 11:46:48;;;;;;;0.90;0.65;;;20.60;46.70;;;;;;6245839;23;19996;-72
2023/04/05 11:49:15;;;;;;;2.92;1.02;;;20.70;47.30;;;;;;6255744;23;20061;-72
2023/04/05 11:51:47;;;;;;;1.30;0.80;;;20.70;47.20;;;;;;6255559;23;20031;-72
2023/04/05 11:54:14;;;;;;;1.75;0.90;;;20.80;46.60;;;;;;6245377;23;20077;-71
2023/04/05 11:56:41;;;;;;;2.15;1.02;;;20.90;46.50;;;;;;6219093;23;20330;-71
2023/04/05 11:59:12;;;;;;;1.10;1.00;;;20.90;46.50;;;;;;6218983;23;20003;-72
2023/04/05 12:01:38;;;;;;;1.58;1.05;;;21.10;46.30;;;;;;6255484;23;19996;-71
2023/04/05 12:04:06;;;;;;;1.85;1.08;;;21.10;46.40;;;;;;6245655;23;20000;-71
2023/04/05 12:06:32;;;;;;;1.85;0.98;;;21.10;46.30;;;;;;6255441;23;20067;-71
2023/04/05 12:08:57;;;;;;;4.70;1.10;;;21.20;46.20;;;;;;6255500;23;20026;-71
2023/04/05 12:11:27;;;;;;;0.95;0.70;;;21.20;46.20;;;;;;6255391;23;20008;-71
2023/04/05 12:13:57;;;;;;;3.17;0.70;;;21.30;45.90;;;;;;6255513;23;20107;-72
2023/04/05 12:16:23;;;;;;;0.90;0.80;;;21.30;46.10;;;;;;6255301;23;20000;-72
2023/04/05 12:18:56;;;;;;;1.00;0.70;;;21.30;46.30;;;;;;6255369;23;20427;-72
2023/04/05 12:21:23;;;;;;;0.95;0.70;;;21.40;46.10;;;;;;6245578;23;20335;-71
2023/04/05 12:23:50;;;;;;;1.70;1.25;;;21.40;46.20;;;;;;6255298;23;20026;-71
2023/04/05 12:26:16;;;;;;;1.00;0.70;;;21.40;46.20;;;;;;6255314;23;20038;-72
2023/04/05 12:28:53;;;;;;;2.40;1.08;;;21.50;47.00;;;;;;6245343;23;20075;-71
2023/04/05 12:31:37;;;;;;;1.48;0.80;;;21.40;46.10;;;;;;6245326;23;20008;-71
2023/04/05 12:34:03;;;;;;;1.13;0.70;;;21.60;46.30;;;;;;6255261;23;20005;-72
2023/04/05 12:36:33;;;;;;;1.00;0.68;;;21.60;46.30;;;;;;6254841;23;19992;-71
2023/04/05 12:38:59;;;;;;;0.95;0.80;;;21.70;46.30;;;;;;6255163;23;20000;-71
2023/04/05 12:41:29;;;;;;;2.00;0.90;;;21.70;46.10;;;;;;6255102;23;19996;-71
2023/04/05 12:44:01;;;;;;;1.20;0.83;;;21.70;46.00;;;;;;6254786;23;20012;-71
2023/04/05 12:46:39;;;;;;;1.08;0.80;;;21.70;46.10;;;;;;6217911;23;20864;-72
2023/04/05 12:49:05;;;;;;;1.23;1.00;;;21.70;46.00;;;;;;6254894;23;20042;-72
2023/04/05 12:51:31;;;;;;;0.98;0.63;;;21.70;45.90;;;;;;6245078;23;20389;-71
2023/04/05 12:54:00;;;;;;;3.40;1.10;;;21.80;46.00;;;;;;6254984;23;20024;-71
2023/04/05 12:56:29;;;;;;;1.08;1.08;;;21.80;46.00;;;;;;6254966;23;20491;-71